TAF

Letisková predpoveď TAF

Informácie o správe TAF

18.11.2018 - 08:00 UTC

TAF LZSL 180800Z 1809/1818 VRB02KT CAVOK
    BECMG 1812/1814 9999 SCT040 SCT100=
TAF LZPP 180800Z 1809/1818 02004KT CAVOK=
TAF LZZI 180800Z 1809/1818 11004KT CAVOK
    BECMG 1812/1814 04008KT 9999 SCT040 BKN080=

18.11.2018 - 05:00 UTC

TAF COR LZKZ 180528Z 1806/1906 02012KT CAVOK
    TEMPO 1806/1810 01005KT
    BECMG 1813/1815 01018KT 9999 SCT030 BKN080
    PROB40 TEMPO 1814/1900 4000 -SN SCT010 BKN020
    BECMG 1900/1902 CAVOK=

18.11.2018 - 05:00 UTC

TAF LZIB 180500Z 1806/1906 VRB02KT CAVOK
    BECMG 1810/1812 9999 SCT040 SCT100
    BECMG 1814/1816 31004KT
    PROB30 TEMPO 1820/1900 -SN FEW010 BKN040
    BECMG 1904/1906 4000 -SN SCT010 BKN020=
TAF LZKZ 180500Z 1806/1906 02012KT CAVOK
    TEMPO 1806/1810 01005KT
    BECMG 1809/1811
    BECMG 1813/1815 01018KT 9999 SCT030 BKN080
    PROB40 TEMPO 1814/1900 4000 -SN SCT010 BKN020
    BECMG 1900/1902 CAVOK=
TAF LZTT 180500Z 1806/1906 23004KT 9999 BKN075
    BECMG 1808/1810 08007KT
    BECMG 1811/1813 BKN025 OVC050
    TEMPO 1814/1906 4000 -SN SCT010 OVC020=

18.11.2018 - 05:00 UTC

TAF LZSL 180500Z 1806/1815 VRB02KT CAVOK
    TEMPO 1806/1807 5000 BR NSC
    BECMG 1812/1814 9999 SCT040 SCT100=
TAF LZPP 180500Z 1806/1815 02005KT CAVOK=
TAF LZZI 180500Z 1806/1815 VRB02KT CAVOK
    BECMG 1809/1811 06004KT
    BECMG 1812/1814 9999 SCT040 BKN080=

18.11.2018 - 02:00 UTC

TAF LZSL 180200Z 1803/1812 VRB02KT CAVOK
    TEMPO 1803/1807 5000 BR NSC=
TAF LZZI 180200Z 1803/1812 VRB02KT CAVOK
    BECMG 1809/1811 06004KT=

skok na menu ↑


skok na začiatok stránky ↑